sensor_id;sensor_type;location;lat;lon;timestamp;temperature;humidity
20672;DHT22;10495;50.922;4.760;2023-06-19T00:00:11;22.20;61.80
20672;DHT22;10495;50.922;4.760;2023-06-19T00:02:42;22.20;62.50
20672;DHT22;10495;50.922;4.760;2023-06-19T00:05:08;22.20;63.60
20672;DHT22;10495;50.922;4.760;2023-06-19T00:07:38;22.20;62.50
20672;DHT22;10495;50.922;4.760;2023-06-19T00:10:04;22.10;62.60
20672;DHT22;10495;50.922;4.760;2023-06-19T00:12:30;22.00;62.90
20672;DHT22;10495;50.922;4.760;2023-06-19T00:14:56;22.00;63.60
20672;DHT22;10495;50.922;4.760;2023-06-19T00:17:21;22.20;64.00
20672;DHT22;10495;50.922;4.760;2023-06-19T00:19:47;22.20;63.60
20672;DHT22;10495;50.922;4.760;2023-06-19T00:22:14;22.20;64.20
20672;DHT22;10495;50.922;4.760;2023-06-19T00:24:40;21.90;65.30
20672;DHT22;10495;50.922;4.760;2023-06-19T00:27:06;21.90;65.80
20672;DHT22;10495;50.922;4.760;2023-06-19T00:29:32;21.90;66.30
20672;DHT22;10495;50.922;4.760;2023-06-19T00:31:59;21.90;66.40
20672;DHT22;10495;50.922;4.760;2023-06-19T00:34:24;21.80;66.70
20672;DHT22;10495;50.922;4.760;2023-06-19T00:36:51;21.70;66.90
20672;DHT22;10495;50.922;4.760;2023-06-19T00:39:24;21.70;67.30
20672;DHT22;10495;50.922;4.760;2023-06-19T00:41:55;21.70;67.70
20672;DHT22;10495;50.922;4.760;2023-06-19T00:44:21;21.70;68.00
20672;DHT22;10495;50.922;4.760;2023-06-19T00:46:47;21.80;68.00
20672;DHT22;10495;50.922;4.760;2023-06-19T00:49:16;21.60;68.50
20672;DHT22;10495;50.922;4.760;2023-06-19T00:51:41;21.60;69.50
20672;DHT22;10495;50.922;4.760;2023-06-19T00:54:07;21.60;69.50
20672;DHT22;10495;50.922;4.760;2023-06-19T00:56:33;21.50;70.10
20672;DHT22;10495;50.922;4.760;2023-06-19T00:59:06;21.60;70.00
20672;DHT22;10495;50.922;4.760;2023-06-19T01:01:33;21.50;70.10
20672;DHT22;10495;50.922;4.760;2023-06-19T01:03:59;21.40;70.90
20672;DHT22;10495;50.922;4.760;2023-06-19T01:06:27;21.30;71.40
20672;DHT22;10495;50.922;4.760;2023-06-19T01:09:07;21.50;71.40
20672;DHT22;10495;50.922;4.760;2023-06-19T01:11:37;21.20;72.20
20672;DHT22;10495;50.922;4.760;2023-06-19T01:14:14;21.30;72.30
20672;DHT22;10495;50.922;4.760;2023-06-19T01:16:41;21.20;72.10
20672;DHT22;10495;50.922;4.760;2023-06-19T01:19:10;21.00;72.50
20672;DHT22;10495;50.922;4.760;2023-06-19T01:21:36;20.90;73.70
20672;DHT22;10495;50.922;4.760;2023-06-19T01:24:02;21.00;73.20
20672;DHT22;10495;50.922;4.760;2023-06-19T01:26:28;21.10;73.10
20672;DHT22;10495;50.922;4.760;2023-06-19T01:28:55;21.00;73.70
20672;DHT22;10495;50.922;4.760;2023-06-19T01:31:31;20.90;74.10
20672;DHT22;10495;50.922;4.760;2023-06-19T01:33:57;20.80;74.00
20672;DHT22;10495;50.922;4.760;2023-06-19T01:36:24;20.70;75.00
20672;DHT22;10495;50.922;4.760;2023-06-19T01:38:51;20.70;74.70
20672;DHT22;10495;50.922;4.760;2023-06-19T01:41:19;20.60;75.20
20672;DHT22;10495;50.922;4.760;2023-06-19T01:43:45;20.70;75.40
20672;DHT22;10495;50.922;4.760;2023-06-19T01:46:11;20.70;75.20
20672;DHT22;10495;50.922;4.760;2023-06-19T01:48:38;20.80;75.20
20672;DHT22;10495;50.922;4.760;2023-06-19T01:51:04;20.80;75.20
20672;DHT22;10495;50.922;4.760;2023-06-19T01:53:32;20.80;74.90
20672;DHT22;10495;50.922;4.760;2023-06-19T01:55:59;20.80;75.40
20672;DHT22;10495;50.922;4.760;2023-06-19T01:58:24;20.80;75.60
20672;DHT22;10495;50.922;4.760;2023-06-19T02:00:50;20.70;75.70
20672;DHT22;10495;50.922;4.760;2023-06-19T02:03:16;20.70;76.20
20672;DHT22;10495;50.922;4.760;2023-06-19T02:05:42;20.70;76.20
20672;DHT22;10495;50.922;4.760;2023-06-19T02:08:08;20.70;76.00
20672;DHT22;10495;50.922;4.760;2023-06-19T02:10:34;20.70;76.70
20672;DHT22;10495;50.922;4.760;2023-06-19T02:12:59;20.70;76.70
20672;DHT22;10495;50.922;4.760;2023-06-19T02:15:25;20.80;76.70
20672;DHT22;10495;50.922;4.760;2023-06-19T02:17:51;20.80;76.80
20672;DHT22;10495;50.922;4.760;2023-06-19T02:20:21;20.70;77.20
20672;DHT22;10495;50.922;4.760;2023-06-19T02:22:46;20.70;77.30
20672;DHT22;10495;50.922;4.760;2023-06-19T02:25:12;20.80;76.80
20672;DHT22;10495;50.922;4.760;2023-06-19T02:27:38;20.80;76.90
20672;DHT22;10495;50.922;4.760;2023-06-19T02:30:04;20.80;77.00
20672;DHT22;10495;50.922;4.760;2023-06-19T02:32:30;20.80;77.40
20672;DHT22;10495;50.922;4.760;2023-06-19T02:34:56;20.70;77.80
20672;DHT22;10495;50.922;4.760;2023-06-19T02:37:22;20.80;77.80
20672;DHT22;10495;50.922;4.760;2023-06-19T02:39:48;20.70;78.00
20672;DHT22;10495;50.922;4.760;2023-06-19T02:42:13;20.80;77.80
20672;DHT22;10495;50.922;4.760;2023-06-19T02:44:39;20.80;78.00
20672;DHT22;10495;50.922;4.760;2023-06-19T02:47:06;21.00;77.80
20672;DHT22;10495;50.922;4.760;2023-06-19T02:49:31;20.90;77.80
20672;DHT22;10495;50.922;4.760;2023-06-19T02:51:57;20.90;78.20
20672;DHT22;10495;50.922;4.760;2023-06-19T02:54:23;20.80;78.50
20672;DHT22;10495;50.922;4.760;2023-06-19T02:56:48;20.90;78.30
20672;DHT22;10495;50.922;4.760;2023-06-19T02:59:14;20.80;78.50
20672;DHT22;10495;50.922;4.760;2023-06-19T03:01:39;20.90;78.70
20672;DHT22;10495;50.922;4.760;2023-06-19T03:04:05;20.80;78.60
20672;DHT22;10495;50.922;4.760;2023-06-19T03:06:30;20.90;78.40
20672;DHT22;10495;50.922;4.760;2023-06-19T03:08:56;20.80;78.80
20672;DHT22;10495;50.922;4.760;2023-06-19T03:11:22;20.80;79.10
20672;DHT22;10495;50.922;4.760;2023-06-19T03:13:53;21.00;79.30
20672;DHT22;10495;50.922;4.760;2023-06-19T03:16:20;21.10;78.90
20672;DHT22;10495;50.922;4.760;2023-06-19T03:18:46;20.80;79.60
20672;DHT22;10495;50.922;4.760;2023-06-19T03:21:15;20.70;80.40
20672;DHT22;10495;50.922;4.760;2023-06-19T03:23:40;20.60;81.20
20672;DHT22;10495;50.922;4.760;2023-06-19T03:26:07;20.70;81.40
20672;DHT22;10495;50.922;4.760;2023-06-19T03:28:33;20.70;81.70
20672;DHT22;10495;50.922;4.760;2023-06-19T03:30:58;20.60;82.00
20672;DHT22;10495;50.922;4.760;2023-06-19T03:33:24;20.70;82.30
20672;DHT22;10495;50.922;4.760;2023-06-19T03:35:49;20.80;81.70
20672;DHT22;10495;50.922;4.760;2023-06-19T03:38:15;20.70;82.30
20672;DHT22;10495;50.922;4.760;2023-06-19T03:40:41;20.80;82.40
20672;DHT22;10495;50.922;4.760;2023-06-19T03:43:06;20.70;82.80
20672;DHT22;10495;50.922;4.760;2023-06-19T03:45:32;20.70;83.00
20672;DHT22;10495;50.922;4.760;2023-06-19T03:47:57;20.70;83.00
20672;DHT22;10495;50.922;4.760;2023-06-19T03:50:23;20.80;82.70
20672;DHT22;10495;50.922;4.760;2023-06-19T03:52:49;21.00;82.90
20672;DHT22;10495;50.922;4.760;2023-06-19T03:55:14;21.00;83.20
20672;DHT22;10495;50.922;4.760;2023-06-19T03:57:40;20.80;84.20
20672;DHT22;10495;50.922;4.760;2023-06-19T04:00:06;20.80;84.20
20672;DHT22;10495;50.922;4.760;2023-06-19T04:02:36;20.80;84.40
20672;DHT22;10495;50.922;4.760;2023-06-19T04:05:02;20.90;84.50
20672;DHT22;10495;50.922;4.760;2023-06-19T04:07:28;20.80;85.00
20672;DHT22;10495;50.922;4.760;2023-06-19T04:09:54;20.90;84.90
20672;DHT22;10495;50.922;4.760;2023-06-19T04:12:20;20.80;85.30
20672;DHT22;10495;50.922;4.760;2023-06-19T04:14:45;20.80;85.40
20672;DHT22;10495;50.922;4.760;2023-06-19T04:17:12;20.90;85.20
20672;DHT22;10495;50.922;4.760;2023-06-19T04:19:38;21.20;83.50
20672;DHT22;10495;50.922;4.760;2023-06-19T04:22:03;20.90;83.50
20672;DHT22;10495;50.922;4.760;2023-06-19T04:24:29;21.10;83.40
20672;DHT22;10495;50.922;4.760;2023-06-19T04:26:55;21.00;82.80
20672;DHT22;10495;50.922;4.760;2023-06-19T04:29:20;21.00;82.80
20672;DHT22;10495;50.922;4.760;2023-06-19T04:31:46;21.00;82.80
20672;DHT22;10495;50.922;4.760;2023-06-19T04:34:18;21.10;81.70
20672;DHT22;10495;50.922;4.760;2023-06-19T04:36:47;21.20;80.90
20672;DHT22;10495;50.922;4.760;2023-06-19T04:39:13;21.20;80.90
20672;DHT22;10495;50.922;4.760;2023-06-19T04:41:43;21.20;80.40
20672;DHT22;10495;50.922;4.760;2023-06-19T04:44:09;21.10;80.60
20672;DHT22;10495;50.922;4.760;2023-06-19T04:46:37;21.00;80.10
20672;DHT22;10495;50.922;4.760;2023-06-19T04:49:04;21.10;80.10
20672;DHT22;10495;50.922;4.760;2023-06-19T04:51:31;21.00;80.00
20672;DHT22;10495;50.922;4.760;2023-06-19T04:53:58;21.00;80.20
20672;DHT22;10495;50.922;4.760;2023-06-19T04:56:24;21.00;79.60
20672;DHT22;10495;50.922;4.760;2023-06-19T04:58:50;21.00;79.90
20672;DHT22;10495;50.922;4.760;2023-06-19T05:01:17;20.90;79.90
20672;DHT22;10495;50.922;4.760;2023-06-19T05:03:45;21.10;79.40
20672;DHT22;10495;50.922;4.760;2023-06-19T05:06:14;21.00;79.30
20672;DHT22;10495;50.922;4.760;2023-06-19T05:08:40;21.00;79.40
20672;DHT22;10495;50.922;4.760;2023-06-19T05:11:05;21.10;79.40
20672;DHT22;10495;50.922;4.760;2023-06-19T05:13:31;21.30;78.10
20672;DHT22;10495;50.922;4.760;2023-06-19T05:15:56;21.50;78.40
20672;DHT22;10495;50.922;4.760;2023-06-19T05:18:22;21.70;78.40
20672;DHT22;10495;50.922;4.760;2023-06-19T05:20:48;22.10;77.50
20672;DHT22;10495;50.922;4.760;2023-06-19T05:23:13;22.60;75.70
20672;DHT22;10495;50.922;4.760;2023-06-19T05:25:39;22.80;74.10
20672;DHT22;10495;50.922;4.760;2023-06-19T05:28:05;23.10;73.80
20672;DHT22;10495;50.922;4.760;2023-06-19T05:30:30;23.70;72.30
20672;DHT22;10495;50.922;4.760;2023-06-19T05:32:56;24.00;70.30
20672;DHT22;10495;50.922;4.760;2023-06-19T05:35:21;24.20;69.40
20672;DHT22;10495;50.922;4.760;2023-06-19T05:37:47;24.50;69.00
20672;DHT22;10495;50.922;4.760;2023-06-19T05:40:13;24.80;68.40
20672;DHT22;10495;50.922;4.760;2023-06-19T05:42:39;24.70;66.70
20672;DHT22;10495;50.922;4.760;2023-06-19T05:45:05;24.90;67.00
20672;DHT22;10495;50.922;4.760;2023-06-19T05:47:31;25.00;64.10
20672;DHT22;10495;50.922;4.760;2023-06-19T05:49:57;25.10;64.30
20672;DHT22;10495;50.922;4.760;2023-06-19T05:52:23;25.20;64.30
20672;DHT22;10495;50.922;4.760;2023-06-19T05:54:49;25.60;64.20
20672;DHT22;10495;50.922;4.760;2023-06-19T05:57:14;25.90;63.70
20672;DHT22;10495;50.922;4.760;2023-06-19T05:59:42;26.20;62.80
20672;DHT22;10495;50.922;4.760;2023-06-19T06:02:07;26.40;61.60
20672;DHT22;10495;50.922;4.760;2023-06-19T06:04:33;26.60;60.50
20672;DHT22;10495;50.922;4.760;2023-06-19T06:07:02;26.40;59.90
20672;DHT22;10495;50.922;4.760;2023-06-19T06:09:28;26.70;60.10
20672;DHT22;10495;50.922;4.760;2023-06-19T06:11:53;26.70;59.60
20672;DHT22;10495;50.922;4.760;2023-06-19T06:14:19;26.60;59.70
20672;DHT22;10495;50.922;4.760;2023-06-19T06:16:45;26.40;59.40
20672;DHT22;10495;50.922;4.760;2023-06-19T06:19:10;25.90;59.80
20672;DHT22;10495;50.922;4.760;2023-06-19T06:21:36;25.60;59.90
20672;DHT22;10495;50.922;4.760;2023-06-19T06:24:02;25.40;60.10
20672;DHT22;10495;50.922;4.760;2023-06-19T06:26:28;24.90;61.10
20672;DHT22;10495;50.922;4.760;2023-06-19T06:28:54;24.80;61.50
20672;DHT22;10495;50.922;4.760;2023-06-19T06:31:22;24.50;62.30
20672;DHT22;10495;50.922;4.760;2023-06-19T06:33:48;24.30;62.90
20672;DHT22;10495;50.922;4.760;2023-06-19T06:36:15;24.20;62.80
20672;DHT22;10495;50.922;4.760;2023-06-19T06:38:40;24.00;62.50
20672;DHT22;10495;50.922;4.760;2023-06-19T06:41:06;23.90;63.20
20672;DHT22;10495;50.922;4.760;2023-06-19T06:43:32;23.90;63.10
20672;DHT22;10495;50.922;4.760;2023-06-19T06:45:58;24.00;62.20
20672;DHT22;10495;50.922;4.760;2023-06-19T06:48:23;23.90;62.50
20672;DHT22;10495;50.922;4.760;2023-06-19T06:50:49;23.90;62.50
20672;DHT22;10495;50.922;4.760;2023-06-19T06:53:14;23.60;62.70
20672;DHT22;10495;50.922;4.760;2023-06-19T06:55:40;23.70;62.60
20672;DHT22;10495;50.922;4.760;2023-06-19T06:58:06;23.80;63.90
20672;DHT22;10495;50.922;4.760;2023-06-19T07:00:31;23.70;62.70
20672;DHT22;10495;50.922;4.760;2023-06-19T07:02:57;23.70;63.00
20672;DHT22;10495;50.922;4.760;2023-06-19T07:05:23;23.80;63.20
20672;DHT22;10495;50.922;4.760;2023-06-19T07:07:48;24.00;62.60
20672;DHT22;10495;50.922;4.760;2023-06-19T07:10:14;23.90;62.50
20672;DHT22;10495;50.922;4.760;2023-06-19T07:12:49;24.00;62.40
20672;DHT22;10495;50.922;4.760;2023-06-19T07:15:14;24.00;62.90
20672;DHT22;10495;50.922;4.760;2023-06-19T07:17:40;24.30;62.60
20672;DHT22;10495;50.922;4.760;2023-06-19T07:20:06;24.30;62.70
20672;DHT22;10495;50.922;4.760;2023-06-19T07:22:32;24.30;62.50
20672;DHT22;10495;50.922;4.760;2023-06-19T07:24:58;24.60;61.60
20672;DHT22;10495;50.922;4.760;2023-06-19T07:27:23;24.50;62.00
20672;DHT22;10495;50.922;4.760;2023-06-19T07:29:53;24.50;61.30
20672;DHT22;10495;50.922;4.760;2023-06-19T07:32:18;24.40;59.60
20672;DHT22;10495;50.922;4.760;2023-06-19T07:34:45;24.50;59.90
20672;DHT22;10495;50.922;4.760;2023-06-19T07:37:11;24.60;59.90
20672;DHT22;10495;50.922;4.760;2023-06-19T07:39:46;24.80;59.80
20672;DHT22;10495;50.922;4.760;2023-06-19T07:42:13;25.10;59.50
20672;DHT22;10495;50.922;4.760;2023-06-19T07:44:40;25.50;58.90
20672;DHT22;10495;50.922;4.760;2023-06-19T07:47:06;25.70;58.20
20672;DHT22;10495;50.922;4.760;2023-06-19T07:49:32;25.80;58.70
20672;DHT22;10495;50.922;4.760;2023-06-19T07:51:57;25.90;58.10
20672;DHT22;10495;50.922;4.760;2023-06-19T07:54:23;26.10;57.70
20672;DHT22;10495;50.922;4.760;2023-06-19T07:56:48;26.00;57.70
20672;DHT22;10495;50.922;4.760;2023-06-19T07:59:14;25.80;57.90
20672;DHT22;10495;50.922;4.760;2023-06-19T08:01:40;25.70;57.90
20672;DHT22;10495;50.922;4.760;2023-06-19T08:04:06;25.80;57.60
20672;DHT22;10495;50.922;4.760;2023-06-19T08:06:32;25.70;57.70
20672;DHT22;10495;50.922;4.760;2023-06-19T08:08:57;26.10;58.00
20672;DHT22;10495;50.922;4.760;2023-06-19T08:11:23;26.40;58.10
20672;DHT22;10495;50.922;4.760;2023-06-19T08:13:49;26.90;58.10
20672;DHT22;10495;50.922;4.760;2023-06-19T08:16:15;27.30;57.70
20672;DHT22;10495;50.922;4.760;2023-06-19T08:18:40;27.90;57.10
20672;DHT22;10495;50.922;4.760;2023-06-19T08:21:06;28.30;56.80
20672;DHT22;10495;50.922;4.760;2023-06-19T08:23:32;28.70;56.20
20672;DHT22;10495;50.922;4.760;2023-06-19T08:25:57;28.80;55.80
20672;DHT22;10495;50.922;4.760;2023-06-19T08:28:23;28.80;56.10
20672;DHT22;10495;50.922;4.760;2023-06-19T08:30:49;29.10;56.00
20672;DHT22;10495;50.922;4.760;2023-06-19T08:33:14;29.30;55.10
20672;DHT22;10495;50.922;4.760;2023-06-19T08:35:40;29.30;54.40
20672;DHT22;10495;50.922;4.760;2023-06-19T08:38:06;29.60;54.60
20672;DHT22;10495;50.922;4.760;2023-06-19T08:40:33;29.80;54.40
20672;DHT22;10495;50.922;4.760;2023-06-19T08:42:58;30.00;54.00
20672;DHT22;10495;50.922;4.760;2023-06-19T08:45:26;30.00;54.40
20672;DHT22;10495;50.922;4.760;2023-06-19T08:47:58;30.00;54.00
20672;DHT22;10495;50.922;4.760;2023-06-19T08:50:25;30.10;54.20
20672;DHT22;10495;50.922;4.760;2023-06-19T08:52:50;29.90;54.40
20672;DHT22;10495;50.922;4.760;2023-06-19T08:55:16;30.20;54.00
20672;DHT22;10495;50.922;4.760;2023-06-19T08:57:42;30.40;53.90
20672;DHT22;10495;50.922;4.760;2023-06-19T09:00:08;30.70;54.00
20672;DHT22;10495;50.922;4.760;2023-06-19T09:02:41;30.70;52.90
20672;DHT22;10495;50.922;4.760;2023-06-19T09:05:15;31.00;54.00
20672;DHT22;10495;50.922;4.760;2023-06-19T09:07:42;31.20;53.70
20672;DHT22;10495;50.922;4.760;2023-06-19T09:10:15;31.30;52.80
20672;DHT22;10495;50.922;4.760;2023-06-19T09:12:42;31.00;51.90
20672;DHT22;10495;50.922;4.760;2023-06-19T09:15:13;30.80;52.40
20672;DHT22;10495;50.922;4.760;2023-06-19T09:17:39;30.60;52.40
20672;DHT22;10495;50.922;4.760;2023-06-19T09:20:05;30.40;52.80
20672;DHT22;10495;50.922;4.760;2023-06-19T09:22:32;30.10;53.80
20672;DHT22;10495;50.922;4.760;2023-06-19T09:25:01;30.60;53.90
20672;DHT22;10495;50.922;4.760;2023-06-19T09:27:32;30.70;52.80
20672;DHT22;10495;50.922;4.760;2023-06-19T09:29:58;30.90;53.20
20672;DHT22;10495;50.922;4.760;2023-06-19T09:32:25;31.30;52.80
20672;DHT22;10495;50.922;4.760;2023-06-19T09:34:53;31.40;52.20
20672;DHT22;10495;50.922;4.760;2023-06-19T09:37:30;31.50;52.10
20672;DHT22;10495;50.922;4.760;2023-06-19T09:40:05;31.40;52.40
20672;DHT22;10495;50.922;4.760;2023-06-19T09:42:38;31.40;52.10
20672;DHT22;10495;50.922;4.760;2023-06-19T09:45:07;31.30;52.40
20672;DHT22;10495;50.922;4.760;2023-06-19T09:47:39;31.40;52.30
20672;DHT22;10495;50.922;4.760;2023-06-19T09:50:07;31.70;52.30
20672;DHT22;10495;50.922;4.760;2023-06-19T09:52:33;31.90;51.90
20672;DHT22;10495;50.922;4.760;2023-06-19T09:55:02;32.10;52.20
20672;DHT22;10495;50.922;4.760;2023-06-19T09:57:28;31.80;51.40
20672;DHT22;10495;50.922;4.760;2023-06-19T09:59:56;31.50;51.60
20672;DHT22;10495;50.922;4.760;2023-06-19T10:02:22;31.20;51.60
20672;DHT22;10495;50.922;4.760;2023-06-19T10:04:54;31.10;51.80
20672;DHT22;10495;50.922;4.760;2023-06-19T10:07:34;31.50;51.30
20672;DHT22;10495;50.922;4.760;2023-06-19T10:10:02;31.50;51.10
20672;DHT22;10495;50.922;4.760;2023-06-19T10:17:52;30.50;51.80
20672;DHT22;10495;50.922;4.760;2023-06-19T10:23:07;30.90;52.70
20672;DHT22;10495;50.922;4.760;2023-06-19T10:25:40;31.40;52.30
20672;DHT22;10495;50.922;4.760;2023-06-19T10:28:28;31.70;52.20
20672;DHT22;10495;50.922;4.760;2023-06-19T10:31:02;31.90;51.10
20672;DHT22;10495;50.922;4.760;2023-06-19T10:33:30;32.20;51.10
20672;DHT22;10495;50.922;4.760;2023-06-19T10:35:58;32.30;51.20
20672;DHT22;10495;50.922;4.760;2023-06-19T10:38:25;32.10;50.70
20672;DHT22;10495;50.922;4.760;2023-06-19T10:40:51;31.70;51.60
20672;DHT22;10495;50.922;4.760;2023-06-19T10:43:24;31.60;51.50
20672;DHT22;10495;50.922;4.760;2023-06-19T10:45:53;31.10;51.20
20672;DHT22;10495;50.922;4.760;2023-06-19T10:48:24;30.90;51.60
20672;DHT22;10495;50.922;4.760;2023-06-19T10:50:50;30.60;52.20
20672;DHT22;10495;50.922;4.760;2023-06-19T10:53:32;30.30;51.90
20672;DHT22;10495;50.922;4.760;2023-06-19T10:56:00;30.20;52.20
20672;DHT22;10495;50.922;4.760;2023-06-19T10:58:27;30.10;52.30
20672;DHT22;10495;50.922;4.760;2023-06-19T11:00:53;30.30;52.30
20672;DHT22;10495;50.922;4.760;2023-06-19T11:03:20;30.10;51.90
20672;DHT22;10495;50.922;4.760;2023-06-19T11:05:46;30.10;51.60
20672;DHT22;10495;50.922;4.760;2023-06-19T11:08:18;30.10;51.80
20672;DHT22;10495;50.922;4.760;2023-06-19T11:10:43;30.10;51.70
20672;DHT22;10495;50.922;4.760;2023-06-19T11:13:14;30.00;52.20
20672;DHT22;10495;50.922;4.760;2023-06-19T11:15:39;30.00;52.40
20672;DHT22;10495;50.922;4.760;2023-06-19T11:18:05;30.00;51.50
20672;DHT22;10495;50.922;4.760;2023-06-19T11:20:31;29.80;51.40
20672;DHT22;10495;50.922;4.760;2023-06-19T11:22:59;29.70;51.70
20672;DHT22;10495;50.922;4.760;2023-06-19T11:25:45;29.40;50.30
20672;DHT22;10495;50.922;4.760;2023-06-19T11:28:14;29.20;50.70
20672;DHT22;10495;50.922;4.760;2023-06-19T11:30:40;29.10;50.60
20672;DHT22;10495;50.922;4.760;2023-06-19T11:33:19;29.30;50.80
20672;DHT22;10495;50.922;4.760;2023-06-19T11:35:52;29.60;51.00
20672;DHT22;10495;50.922;4.760;2023-06-19T11:38:19;29.40;50.30
20672;DHT22;10495;50.922;4.760;2023-06-19T11:40:45;29.00;48.80
20672;DHT22;10495;50.922;4.760;2023-06-19T11:43:11;28.90;50.20
20672;DHT22;10495;50.922;4.760;2023-06-19T11:45:48;29.00;50.90
20672;DHT22;10495;50.922;4.760;2023-06-19T11:48:14;29.00;50.30
20672;DHT22;10495;50.922;4.760;2023-06-19T11:50:46;28.90;50.30
20672;DHT22;10495;50.922;4.760;2023-06-19T11:53:12;29.00;49.80
20672;DHT22;10495;50.922;4.760;2023-06-19T11:55:38;29.00;50.40
20672;DHT22;10495;50.922;4.760;2023-06-19T11:58:04;29.10;50.20
20672;DHT22;10495;50.922;4.760;2023-06-19T12:00:29;29.20;50.00
20672;DHT22;10495;50.922;4.760;2023-06-19T12:02:55;29.40;50.40
20672;DHT22;10495;50.922;4.760;2023-06-19T12:05:22;29.30;49.50
20672;DHT22;10495;50.922;4.760;2023-06-19T12:07:48;29.30;48.60
20672;DHT22;10495;50.922;4.760;2023-06-19T12:10:13;29.10;48.60
20672;DHT22;10495;50.922;4.760;2023-06-19T12:12:39;29.20;49.20
20672;DHT22;10495;50.922;4.760;2023-06-19T12:15:05;29.20;49.40
20672;DHT22;10495;50.922;4.760;2023-06-19T12:17:31;29.10;49.40
20672;DHT22;10495;50.922;4.760;2023-06-19T12:19:58;29.00;49.60
20672;DHT22;10495;50.922;4.760;2023-06-19T12:22:24;29.10;48.70
20672;DHT22;10495;50.922;4.760;2023-06-19T12:24:49;29.10;49.30
20672;DHT22;10495;50.922;4.760;2023-06-19T12:27:15;29.10;49.20
20672;DHT22;10495;50.922;4.760;2023-06-19T12:29:40;29.10;48.90
20672;DHT22;10495;50.922;4.760;2023-06-19T12:32:06;29.10;48.60
20672;DHT22;10495;50.922;4.760;2023-06-19T12:34:32;29.00;49.00
20672;DHT22;10495;50.922;4.760;2023-06-19T12:36:58;28.70;49.60
20672;DHT22;10495;50.922;4.760;2023-06-19T12:39:23;28.80;48.80
20672;DHT22;10495;50.922;4.760;2023-06-19T12:41:50;28.90;48.70
20672;DHT22;10495;50.922;4.760;2023-06-19T12:44:16;28.90;49.00
20672;DHT22;10495;50.922;4.760;2023-06-19T12:46:42;29.00;48.90
20672;DHT22;10495;50.922;4.760;2023-06-19T12:49:07;29.00;48.80
20672;DHT22;10495;50.922;4.760;2023-06-19T12:51:34;28.60;48.80
20672;DHT22;10495;50.922;4.760;2023-06-19T12:53:59;28.80;48.40
20672;DHT22;10495;50.922;4.760;2023-06-19T12:56:25;28.80;48.60
20672;DHT22;10495;50.922;4.760;2023-06-19T12:58:51;29.00;48.50
20672;DHT22;10495;50.922;4.760;2023-06-19T13:01:16;29.00;48.30
20672;DHT22;10495;50.922;4.760;2023-06-19T13:03:42;29.10;47.70
20672;DHT22;10495;50.922;4.760;2023-06-19T13:06:08;28.90;48.20
20672;DHT22;10495;50.922;4.760;2023-06-19T13:08:33;28.90;48.50
20672;DHT22;10495;50.922;4.760;2023-06-19T13:10:59;28.90;48.70
20672;DHT22;10495;50.922;4.760;2023-06-19T13:13:25;29.00;49.00
20672;DHT22;10495;50.922;4.760;2023-06-19T13:15:50;29.00;48.70
20672;DHT22;10495;50.922;4.760;2023-06-19T13:18:17;29.00;48.60
20672;DHT22;10495;50.922;4.760;2023-06-19T13:20:43;28.80;48.10
20672;DHT22;10495;50.922;4.760;2023-06-19T13:23:10;28.50;49.00
20672;DHT22;10495;50.922;4.760;2023-06-19T13:25:36;28.40;48.60
20672;DHT22;10495;50.922;4.760;2023-06-19T13:28:01;28.50;48.80
20672;DHT22;10495;50.922;4.760;2023-06-19T13:30:27;28.30;48.90
20672;DHT22;10495;50.922;4.760;2023-06-19T13:32:54;28.40;48.80
20672;DHT22;10495;50.922;4.760;2023-06-19T13:35:20;28.50;48.80
20672;DHT22;10495;50.922;4.760;2023-06-19T13:37:47;28.30;49.10
20672;DHT22;10495;50.922;4.760;2023-06-19T13:40:12;28.30;49.10
20672;DHT22;10495;50.922;4.760;2023-06-19T13:42:38;28.50;49.10
20672;DHT22;10495;50.922;4.760;2023-06-19T13:45:04;28.60;49.60
20672;DHT22;10495;50.922;4.760;2023-06-19T13:47:30;28.30;49.00
20672;DHT22;10495;50.922;4.760;2023-06-19T13:49:55;28.40;49.50
20672;DHT22;10495;50.922;4.760;2023-06-19T13:52:22;28.60;49.50
20672;DHT22;10495;50.922;4.760;2023-06-19T13:54:48;28.70;49.10
20672;DHT22;10495;50.922;4.760;2023-06-19T13:57:13;29.00;49.10
20672;DHT22;10495;50.922;4.760;2023-06-19T13:59:41;28.90;49.10
20672;DHT22;10495;50.922;4.760;2023-06-19T14:02:08;28.70;48.80
20672;DHT22;10495;50.922;4.760;2023-06-19T14:04:35;28.70;48.70
20672;DHT22;10495;50.922;4.760;2023-06-19T14:07:01;28.80;49.00
20672;DHT22;10495;50.922;4.760;2023-06-19T14:09:27;28.90;49.30
20672;DHT22;10495;50.922;4.760;2023-06-19T14:11:52;28.90;48.90
20672;DHT22;10495;50.922;4.760;2023-06-19T14:14:18;28.90;49.00
20672;DHT22;10495;50.922;4.760;2023-06-19T14:16:43;28.80;48.80
20672;DHT22;10495;50.922;4.760;2023-06-19T14:19:09;28.70;49.10
20672;DHT22;10495;50.922;4.760;2023-06-19T14:21:34;28.90;49.10
20672;DHT22;10495;50.922;4.760;2023-06-19T14:24:00;29.00;49.60
20672;DHT22;10495;50.922;4.760;2023-06-19T14:26:26;29.10;49.20
20672;DHT22;10495;50.922;4.760;2023-06-19T14:28:51;29.10;49.60
20672;DHT22;10495;50.922;4.760;2023-06-19T14:31:23;29.30;49.20
20672;DHT22;10495;50.922;4.760;2023-06-19T14:33:48;29.30;48.90
20672;DHT22;10495;50.922;4.760;2023-06-19T14:36:14;29.20;48.70
20672;DHT22;10495;50.922;4.760;2023-06-19T14:38:39;29.20;49.20
20672;DHT22;10495;50.922;4.760;2023-06-19T14:41:05;29.20;48.90
20672;DHT22;10495;50.922;4.760;2023-06-19T14:43:30;29.10;48.70
20672;DHT22;10495;50.922;4.760;2023-06-19T14:45:58;29.20;49.40
20672;DHT22;10495;50.922;4.760;2023-06-19T14:48:23;29.20;49.40
20672;DHT22;10495;50.922;4.760;2023-06-19T14:50:49;29.30;49.20
20672;DHT22;10495;50.922;4.760;2023-06-19T14:53:15;29.40;49.60
20672;DHT22;10495;50.922;4.760;2023-06-19T14:55:40;29.40;49.70
20672;DHT22;10495;50.922;4.760;2023-06-19T14:58:12;29.50;49.80
20672;DHT22;10495;50.922;4.760;2023-06-19T15:00:37;29.60;49.50
20672;DHT22;10495;50.922;4.760;2023-06-19T15:03:04;29.70;49.40
20672;DHT22;10495;50.922;4.760;2023-06-19T15:05:31;29.70;49.60
20672;DHT22;10495;50.922;4.760;2023-06-19T15:07:57;29.80;49.60
20672;DHT22;10495;50.922;4.760;2023-06-19T15:10:23;29.80;49.50
20672;DHT22;10495;50.922;4.760;2023-06-19T15:12:48;29.80;49.70
20672;DHT22;10495;50.922;4.760;2023-06-19T15:15:14;29.80;49.10
20672;DHT22;10495;50.922;4.760;2023-06-19T15:17:39;29.90;49.10
20672;DHT22;10495;50.922;4.760;2023-06-19T15:20:06;29.80;48.90
20672;DHT22;10495;50.922;4.760;2023-06-19T15:22:33;29.80;48.80
20672;DHT22;10495;50.922;4.760;2023-06-19T15:24:59;29.70;48.50
20672;DHT22;10495;50.922;4.760;2023-06-19T15:27:24;29.60;49.00
20672;DHT22;10495;50.922;4.760;2023-06-19T15:29:50;29.40;49.10
20672;DHT22;10495;50.922;4.760;2023-06-19T15:32:15;29.40;49.10
20672;DHT22;10495;50.922;4.760;2023-06-19T15:34:41;29.50;48.50